Time;durP1;ratioP1;P1;durP2;ratioP2;P2;SDS_P1;SDS_P2;PMS_P1;PMS_P2;Temp;Humidity;BMP_temperature;BMP_pressure;BME280_temperature;BME280_humidity;BME280_pressure;Samples;Min_cycle;Max_cycle;Signal;HPM_P1;HPM_P2
2022/12/26 00:00:33;;;;;;;7.70;4.95;;;8.30;99.90;;;7.27;100.00;97305.47;5071092;28;20403;-73
2022/12/26 00:02:59;;;;;;;8.10;5.00;;;8.30;99.90;;;7.29;100.00;97312.09;5070305;28;20404;-74
2022/12/26 00:05:25;;;;;;;7.30;4.85;;;8.30;99.90;;;7.33;100.00;97310.63;5070953;28;20506;-74
2022/12/26 00:07:52;;;;;;;6.53;4.70;;;8.40;99.90;;;7.31;100.00;97314.50;5071215;28;20453;-73
2022/12/26 00:10:18;;;;;;;7.78;4.45;;;8.30;99.90;;;7.35;100.00;97308.56;5070876;28;20948;-73
2022/12/26 00:12:44;;;;;;;6.28;4.30;;;8.40;99.90;;;7.38;100.00;97312.53;5070043;28;20443;-73
2022/12/26 00:15:10;;;;;;;9.30;5.10;;;8.40;99.90;;;7.34;100.00;97314.06;5070225;28;20428;-73
2022/12/26 00:17:36;;;;;;;9.02;5.30;;;8.40;99.90;;;7.33;100.00;97305.34;5070946;28;20408;-74
2022/12/26 00:20:03;;;;;;;6.45;4.82;;;8.40;99.90;;;7.32;100.00;97310.84;5070892;28;20446;-73
2022/12/26 00:22:29;;;;;;;8.75;4.80;;;8.40;99.90;;;7.24;100.00;97327.00;5070180;28;20881;-73
2022/12/26 00:24:56;;;;;;;7.72;5.32;;;8.30;99.90;;;7.25;100.00;97321.50;5052547;28;20426;-73
2022/12/26 00:27:22;;;;;;;7.28;4.70;;;8.30;99.90;;;7.20;100.00;97320.59;5070616;28;20407;-73
2022/12/26 00:29:49;;;;;;;7.28;5.00;;;8.20;99.90;;;7.18;100.00;97323.47;5069949;28;20959;-74
2022/12/26 00:32:14;;;;;;;8.23;5.15;;;8.20;99.90;;;7.14;100.00;97329.44;5069851;28;20465;-73
2022/12/26 00:34:40;;;;;;;7.63;5.25;;;8.20;99.90;;;7.11;100.00;97330.69;5070006;28;20407;-73
2022/12/26 00:37:06;;;;;;;10.45;5.00;;;8.20;99.90;;;7.05;100.00;97336.06;5070222;28;20411;-73
2022/12/26 00:39:32;;;;;;;7.50;5.00;;;8.10;99.90;;;7.01;100.00;97333.06;5070300;28;20396;-73
2022/12/26 00:41:59;;;;;;;8.65;5.10;;;8.10;99.90;;;6.95;100.00;97329.53;5069542;28;20769;-73
2022/12/26 00:44:25;;;;;;;7.68;5.30;;;8.00;99.90;;;6.90;100.00;97329.44;5069941;28;20399;-73
2022/12/26 00:46:51;;;;;;;10.45;5.57;;;8.00;99.90;;;6.87;100.00;97329.88;5068963;28;20415;-73
2022/12/26 00:49:17;;;;;;;11.15;5.60;;;7.90;99.90;;;6.82;100.00;97319.25;5052069;28;20487;-73
2022/12/26 00:51:43;;;;;;;11.32;5.60;;;7.90;99.90;;;6.80;100.00;97326.56;5069495;28;20494;-73
2022/12/26 00:54:09;;;;;;;11.50;6.10;;;7.90;99.90;;;6.80;100.00;97323.91;5069475;28;20491;-73
2022/12/26 00:56:35;;;;;;;10.27;5.65;;;7.90;99.90;;;6.82;100.00;97326.34;5069763;28;20400;-73
2022/12/26 00:59:02;;;;;;;7.50;5.55;;;7.90;99.90;;;6.82;100.00;97329.75;5069830;28;20431;-74
2022/12/26 01:01:29;;;;;;;9.32;5.90;;;7.90;99.90;;;6.80;100.00;97336.28;5069197;28;20972;-74
2022/12/26 01:03:56;;;;;;;9.30;5.57;;;7.90;99.90;;;6.75;100.00;97323.00;5069735;28;20402;-73
2022/12/26 01:06:22;;;;;;;9.13;5.90;;;7.80;99.90;;;6.74;100.00;97321.41;5069825;28;20921;-73
2022/12/26 01:08:48;;;;;;;10.00;5.95;;;7.80;99.90;;;6.70;100.00;97325.50;5069935;28;20403;-73
2022/12/26 01:11:38;;;;;;;8.53;6.10;;;7.80;99.90;;;6.62;100.00;97316.13;5069349;28;20408;-73
2022/12/26 01:14:04;;;;;;;9.65;5.95;;;7.70;99.90;;;6.65;100.00;97320.13;5069456;28;20966;-73
2022/12/26 01:16:29;;;;;;;8.25;5.38;;;7.70;99.90;;;6.60;100.00;97321.63;5069711;28;20400;-73
2022/12/26 01:18:55;;;;;;;9.80;6.18;;;7.70;99.90;;;6.57;100.00;97313.38;5069950;28;20410;-73
2022/12/26 01:21:21;;;;;;;10.38;6.13;;;7.70;99.90;;;6.57;100.00;97324.69;5069263;28;20396;-72
2022/12/26 01:23:47;;;;;;;11.00;5.97;;;7.70;99.90;;;6.54;100.00;97327.78;5069491;28;20541;-73
2022/12/26 01:26:13;;;;;;;8.77;5.55;;;7.60;99.90;;;6.54;100.00;97334.88;5069642;28;20549;-73
2022/12/26 01:28:39;;;;;;;14.18;6.35;;;7.60;99.90;;;6.51;100.00;97330.88;5069770;28;20445;-74
2022/12/26 01:31:06;;;;;;;9.83;5.90;;;7.60;99.90;;;6.51;100.00;97325.63;5069747;28;20411;-73
2022/12/26 01:33:32;;;;;;;12.10;6.30;;;7.60;99.90;;;6.50;100.00;97331.91;5068881;28;20404;-73
2022/12/26 01:35:58;;;;;;;10.55;5.90;;;7.60;99.90;;;6.49;100.00;97327.66;5069177;28;20410;-73
2022/12/26 01:38:24;;;;;;;13.77;6.50;;;7.60;99.90;;;6.50;100.00;97331.09;5051637;28;20754;-73
2022/12/26 01:41:15;;;;;;;8.48;5.93;;;7.60;99.90;;;6.49;100.00;97335.53;5069570;28;20402;-73
2022/12/26 01:43:55;;;;;;;12.00;6.00;;;7.60;99.90;;;6.50;100.00;97331.09;5069065;28;20404;-74
2022/12/26 01:46:29;;;;;;;12.63;6.40;;;7.60;99.90;;;6.49;100.00;97330.28;5069583;28;20796;-73
2022/12/26 01:48:58;;;;;;;10.02;5.72;;;7.60;99.90;;;6.52;100.00;97331.69;5069669;28;20396;-73
2022/12/26 01:51:28;;;;;;;11.70;6.82;;;7.60;99.90;;;6.51;100.00;97330.88;5068883;28;20407;-73
2022/12/26 01:53:58;;;;;;;10.50;6.17;;;7.60;99.90;;;6.52;100.00;97329.84;5069215;28;20399;-73
2022/12/26 01:56:30;;;;;;;10.93;6.15;;;7.60;99.90;;;6.52;100.00;97327.22;5069277;28;20392;-73
2022/12/26 01:59:05;;;;;;;14.93;6.30;;;7.60;99.90;;;6.56;100.00;97332.81;5069548;28;20528;-73
2022/12/26 02:01:36;;;;;;;13.50;6.63;;;7.60;99.90;;;6.58;100.00;97333.41;5068963;28;20447;-73
2022/12/26 02:06:49;;;;;;;10.35;6.28;;;7.70;99.90;;;6.63;100.00;97319.56;5069031;28;20931;-73
2022/12/26 02:09:15;;;;;;;11.05;6.35;;;7.70;99.90;;;6.69;100.00;97329.19;5069320;28;20404;-73
2022/12/26 02:11:46;;;;;;;10.57;5.65;;;7.70;99.90;;;6.69;100.00;97327.34;5050596;28;20407;-73
2022/12/26 02:14:12;;;;;;;10.18;5.45;;;7.80;99.90;;;6.69;100.00;97321.28;5068987;28;20396;-73
2022/12/26 02:16:40;;;;;;;8.63;5.90;;;7.80;99.90;;;6.71;100.00;97320.03;5069211;28;20430;-73
2022/12/26 02:19:20;;;;;;;11.05;6.05;;;7.80;99.90;;;6.70;100.00;97315.78;5069387;28;20404;-73
2022/12/26 02:22:23;;;;;;;10.77;6.30;;;7.70;99.90;;;6.76;100.00;97322.78;5068622;28;20399;-73
2022/12/26 02:25:31;;;;;;;9.13;5.57;;;7.80;99.90;;;6.78;100.00;97312.00;5068771;28;20494;-73
2022/12/26 02:28:30;;;;;;;12.02;6.35;;;7.80;99.90;;;6.81;100.00;97308.94;5069183;28;20396;-73
2022/12/26 02:31:00;;;;;;;10.25;5.85;;;7.90;99.90;;;6.85;100.00;97323.22;5069041;28;20410;-73
2022/12/26 02:33:50;;;;;;;12.98;5.82;;;7.90;99.90;;;6.82;100.00;97329.75;5068270;28;20616;-73
2022/12/26 02:36:46;;;;;;;11.68;5.35;;;7.90;99.90;;;6.84;100.00;97340.84;5068794;28;20399;-73
2022/12/26 02:39:27;;;;;;;7.43;5.30;;;7.90;99.90;;;6.87;100.00;97347.50;5067614;28;20757;-73
2022/12/26 02:42:09;;;;;;;9.83;5.33;;;7.90;99.90;;;6.91;100.00;97346.03;5064740;28;20404;-72
2022/12/26 02:47:37;;;;;;;7.43;4.93;;;8.00;99.90;;;6.98;100.00;97338.81;5072456;28;20399;-72
2022/12/26 03:13:22;;;;;;;6.68;4.30;;;8.60;99.90;;;7.78;100.00;97337.06;5071350;28;20391;-73
2022/12/26 03:18:45;;;;;;;6.35;4.20;;;8.80;99.90;;;7.87;100.00;97337.50;5072206;28;20441;-73
2022/12/26 03:21:16;;;;;;;6.15;4.13;;;8.90;99.90;;;7.94;100.00;97337.38;5072002;28;20400;-73
2022/12/26 03:23:45;;;;;;;5.28;4.30;;;9.00;99.90;;;7.99;100.00;97332.97;5071897;28;20395;-72
2022/12/26 03:31:47;;;;;;;7.10;3.85;;;8.90;99.90;;;8.01;100.00;97312.47;5071250;28;20427;-73
2022/12/26 03:34:18;;;;;;;5.45;3.80;;;9.00;99.90;;;7.94;100.00;97311.00;5071556;28;20404;-73
2022/12/26 03:37:08;;;;;;;6.55;4.13;;;8.90;99.90;;;8.02;100.00;97318.53;5082983;22;20473;-71
2022/12/26 04:19:59;;;;;;;5.35;3.90;;;8.60;99.90;;;7.73;100.00;97342.25;5070974;28;20942;-70
2022/12/26 04:45:09;;;;;;;5.30;3.92;;;9.20;99.90;;;8.46;100.00;97335.44;5078552;28;20902;-70
2022/12/26 04:47:35;;;;;;;4.43;3.50;;;9.30;99.90;;;8.43;100.00;97331.41;5070505;28;20912;-71
2022/12/26 04:50:13;;;;;;;6.97;3.70;;;9.40;99.90;;;8.37;100.00;97319.19;5070298;28;20889;-71
2022/12/26 04:52:59;;;;;;;6.60;3.50;;;9.40;99.90;;;8.47;100.00;97329.91;5069311;28;20901;-70
2022/12/26 04:55:25;;;;;;;5.40;4.00;;;9.50;99.90;;;8.50;100.00;97320.72;5068873;28;20400;-70
2022/12/26 04:57:51;;;;;;;6.20;3.40;;;9.50;99.90;;;8.44;100.00;97319.84;5070303;28;20760;-70
2022/12/26 05:00:19;;;;;;;5.22;3.38;;;9.50;99.90;;;8.40;100.00;97329.28;5069808;28;20410;-70
2022/12/26 05:11:16;;;;;;;4.68;3.42;;;9.40;99.90;;;8.38;100.00;97325.25;5069478;28;20811;-70
2022/12/26 05:13:41;;;;;;;6.50;3.65;;;9.30;99.90;;;8.32;100.00;97344.69;5069610;28;20404;-70
2022/12/26 05:29:57;;;;;;;5.95;3.65;;;8.90;99.90;;;7.81;100.00;97353.47;5069936;28;20429;-71
2022/12/26 05:35:09;;;;;;;4.83;3.70;;;8.70;99.90;;;7.77;100.00;97342.56;5069985;28;20598;-70
2022/12/26 05:37:35;;;;;;;6.68;4.03;;;8.80;99.90;;;7.74;100.00;97350.97;5069997;28;20394;-70
2022/12/26 05:40:01;;;;;;;7.97;4.03;;;8.80;99.90;;;7.76;100.00;97347.03;5068484;28;20412;-70
2022/12/26 05:42:27;;;;;;;7.70;4.45;;;8.80;99.90;;;7.78;100.00;97352.06;5068971;28;20431;-71
2022/12/26 05:44:53;;;;;;;6.37;3.80;;;8.80;99.90;;;7.78;100.00;97354.72;5069552;28;20403;-70
2022/12/26 05:47:19;;;;;;;4.57;3.50;;;8.80;99.90;;;7.80;100.00;97351.84;5069559;28;20510;-70
2022/12/26 05:49:46;;;;;;;7.72;4.30;;;8.80;99.90;;;7.84;100.00;97359.03;5068283;28;20407;-70
2022/12/26 05:52:12;;;;;;;6.75;3.65;;;8.80;99.90;;;7.81;100.00;97361.38;5067691;28;20407;-69
2022/12/26 05:54:38;;;;;;;7.93;3.83;;;8.80;99.90;;;7.83;100.00;97359.28;5069396;28;20827;-70
2022/12/26 05:57:04;;;;;;;5.18;3.97;;;8.80;99.90;;;7.85;100.00;97355.38;5069446;28;20415;-71
2022/12/26 05:59:29;;;;;;;6.72;3.90;;;8.90;99.90;;;7.84;100.00;97359.03;5069686;28;20410;-69
2022/12/26 06:01:55;;;;;;;4.43;3.40;;;8.90;99.90;;;7.88;100.00;97359.41;5068883;28;20524;-70
2022/12/26 06:04:21;;;;;;;8.73;4.30;;;8.90;99.90;;;8.07;100.00;97366.88;5069285;28;20411;-70
2022/12/26 06:06:48;;;;;;;6.45;4.05;;;9.00;99.90;;;8.03;100.00;97368.41;5069429;28;20439;-70
2022/12/26 06:09:14;;;;;;;4.93;3.63;;;9.00;99.90;;;8.10;100.00;97361.16;5069566;28;20395;-70
2022/12/26 06:11:40;;;;;;;5.80;3.70;;;9.10;99.90;;;8.13;100.00;97357.22;5068905;28;20399;-70
2022/12/26 06:14:06;;;;;;;7.28;4.00;;;9.10;99.90;;;8.19;100.00;97347.59;5072428;28;20483;-70
2022/12/26 06:16:32;;;;;;;6.82;3.60;;;9.20;99.90;;;8.16;100.00;97340.94;5073295;28;20403;-70
2022/12/26 06:18:58;;;;;;;5.83;3.50;;;9.20;99.90;;;8.24;100.00;97342.41;5073218;28;20856;-70
2022/12/26 06:21:24;;;;;;;6.68;4.28;;;9.20;99.90;;;8.31;100.00;97348.34;5072473;28;20399;-70
2022/12/26 06:23:51;;;;;;;8.77;3.70;;;9.30;99.90;;;8.34;100.00;97343.41;5072883;28;20908;-70
2022/12/26 06:26:17;;;;;;;4.57;3.20;;;9.30;99.90;;;8.34;100.00;97348.69;5072915;28;20447;-70
2022/12/26 06:28:44;;;;;;;4.25;3.20;;;9.30;99.90;;;8.40;100.00;97347.72;5073005;28;20441;-72
2022/12/26 06:31:13;;;;;;;5.75;3.88;;;9.40;99.90;;;8.43;100.00;97339.31;5072937;28;20407;-68
2022/12/26 06:33:39;;;;;;;4.47;3.60;;;9.40;99.90;;;8.44;100.00;97342.75;5054769;28;20419;-70
2022/12/26 06:36:08;;;;;;;5.00;3.35;;;9.40;99.90;;;8.41;100.00;97348.53;5072476;28;20761;-70
2022/12/26 06:38:35;;;;;;;6.82;3.80;;;9.40;99.90;;;8.32;100.00;97339.41;5072927;28;20883;-70
2022/12/26 06:41:03;;;;;;;5.82;3.60;;;9.30;99.90;;;8.28;100.00;97331.13;5072845;28;20495;-70
2022/12/26 06:43:29;;;;;;;7.05;4.43;;;9.30;99.90;;;8.35;100.00;97341.56;5072219;28;20422;-71
2022/12/26 06:45:56;;;;;;;4.90;3.70;;;9.30;99.90;;;8.34;100.00;97343.41;5072830;28;20948;-70
2022/12/26 06:48:22;;;;;;;7.38;3.97;;;9.30;99.90;;;8.24;100.00;97347.66;5072802;28;20469;-71
2022/12/26 06:50:48;;;;;;;7.25;3.70;;;9.30;99.90;;;8.26;100.00;97351.69;5072639;28;20404;-70
2022/12/26 06:53:14;;;;;;;5.43;3.87;;;9.20;99.90;;;8.28;100.00;97343.50;5071777;28;20917;-71
2022/12/26 06:55:40;;;;;;;5.78;3.70;;;9.30;99.90;;;8.26;100.00;97348.25;5072164;28;20432;-71
2022/12/26 06:58:07;;;;;;;4.07;3.40;;;9.30;99.90;;;8.27;100.00;97353.25;5073037;28;20399;-71
2022/12/26 07:00:33;;;;;;;5.73;3.50;;;9.30;99.90;;;8.27;100.00;97352.47;5072505;28;20410;-71
2022/12/26 07:02:59;;;;;;;5.45;3.60;;;9.20;99.90;;;8.21;100.00;97351.56;5071580;28;20408;-71
2022/12/26 07:05:24;;;;;;;4.50;3.50;;;9.20;99.90;;;8.23;100.00;97356.63;5072251;28;20920;-71
2022/12/26 07:07:53;;;;;;;5.67;3.60;;;9.20;99.90;;;8.22;100.00;97355.81;5072494;28;20545;-70
2022/12/26 07:10:19;;;;;;;4.07;3.17;;;9.20;99.90;;;8.22;100.00;97366.34;5072277;28;20905;-71
2022/12/26 07:12:46;;;;;;;5.15;3.63;;;9.20;99.90;;;8.18;100.00;97361.81;5071589;28;20418;-70
2022/12/26 07:15:14;;;;;;;7.13;4.05;;;9.20;99.90;;;8.14;100.00;97364.91;5072220;28;20400;-71
2022/12/26 07:17:40;;;;;;;4.18;3.25;;;9.10;99.90;;;8.16;100.00;97365.47;5072213;28;20440;-70
2022/12/26 07:20:08;;;;;;;6.03;3.58;;;9.20;99.90;;;8.15;100.00;97358.59;5072148;28;20502;-70
2022/12/26 07:22:33;;;;;;;6.60;3.55;;;9.10;99.90;;;8.15;100.00;97361.22;5070770;28;20510;-70
2022/12/26 07:24:59;;;;;;;4.10;3.60;;;9.10;99.90;;;8.15;100.00;97363.06;5071330;28;20487;-71
2022/12/26 07:27:25;;;;;;;5.57;3.72;;;9.10;99.90;;;8.20;100.00;97367.63;5071788;28;20904;-70
2022/12/26 07:29:51;;;;;;;5.50;3.83;;;9.20;99.90;;;8.18;100.00;97367.88;5071956;28;20400;-71
2022/12/26 07:32:18;;;;;;;4.95;3.40;;;9.20;99.90;;;8.19;100.00;97366.03;5061281;28;20917;-70
2022/12/26 07:34:44;;;;;;;7.45;3.85;;;9.20;99.90;;;8.12;100.00;97374.06;5063332;28;20512;-70
2022/12/26 07:37:10;;;;;;;6.10;3.67;;;9.10;99.90;;;8.14;100.00;97378.06;5052899;28;20889;-70
2022/12/26 07:39:36;;;;;;;4.75;3.88;;;9.20;99.90;;;8.18;100.00;97367.06;5071371;28;20442;-70
2022/12/26 07:42:02;;;;;;;5.65;3.83;;;9.20;99.90;;;8.16;100.00;97356.75;5070843;28;20410;-70
2022/12/26 07:44:30;;;;;;;5.80;3.95;;;9.20;99.90;;;8.21;100.00;97369.22;5071165;28;20395;-70
2022/12/26 07:46:58;;;;;;;6.20;3.72;;;9.20;99.90;;;8.14;100.00;97372.00;5071464;28;20430;-70
2022/12/26 07:49:25;;;;;;;4.80;3.33;;;9.20;99.90;;;8.20;100.00;97373.69;5071292;28;20403;-70
2022/12/26 07:51:51;;;;;;;7.05;4.18;;;9.20;99.90;;;8.21;100.00;97361.31;5070754;28;20400;-70
2022/12/26 07:54:18;;;;;;;6.65;4.20;;;9.20;99.90;;;8.19;100.00;97366.84;5053077;28;20434;-70
2022/12/26 07:56:44;;;;;;;7.32;3.88;;;9.20;99.90;;;8.15;100.00;97389.44;5071220;28;20829;-70
2022/12/26 07:59:13;;;;;;;6.30;3.90;;;9.10;99.90;;;8.19;100.00;97392.41;5053400;28;20769;-70
2022/12/26 08:01:40;;;;;;;5.65;4.07;;;9.20;99.90;;;8.19;100.00;97389.78;5070716;28;20761;-70
2022/12/26 08:04:06;;;;;;;6.20;4.63;;;9.10;99.90;;;8.18;100.00;97386.34;5070831;28;20435;-70
2022/12/26 08:06:33;;;;;;;6.15;4.10;;;9.20;99.90;;;8.19;100.00;97387.94;5071086;28;20412;-70
2022/12/26 08:08:59;;;;;;;7.75;4.28;;;9.20;99.90;;;8.19;100.00;97384.50;5071140;28;20439;-70
2022/12/26 08:11:32;;;;;;;5.35;4.10;;;9.10;99.90;;;8.16;100.00;97376.00;5070520;28;20434;-70
2022/12/26 08:13:58;;;;;;;6.85;4.20;;;9.20;99.90;;;8.13;100.00;97373.03;5070979;28;20403;-70
2022/12/26 08:16:24;;;;;;;8.93;4.78;;;9.10;99.90;;;8.07;100.00;97376.63;5070918;28;20396;-70
2022/12/26 08:18:50;;;;;;;7.47;4.40;;;9.10;99.90;;;8.05;100.00;97383.94;5071077;28;20400;-70
2022/12/26 08:21:16;;;;;;;8.35;4.60;;;9.00;99.90;;;8.06;100.00;97382.91;5070343;28;20399;-70
2022/12/26 08:23:45;;;;;;;10.23;4.90;;;9.00;99.90;;;8.05;100.00;97389.22;5070417;28;20893;-69
2022/12/26 08:26:19;;;;;;;9.32;4.93;;;9.10;99.90;;;8.04;100.00;97390.28;5070676;28;20411;-71
2022/12/26 08:28:45;;;;;;;6.55;4.47;;;9.00;99.90;;;8.07;100.00;97392.44;5052749;28;20909;-70
2022/12/26 08:31:12;;;;;;;4.53;3.60;;;9.10;99.90;;;8.10;100.00;97392.78;5070702;28;20399;-70
2022/12/26 08:33:38;;;;;;;7.30;4.20;;;9.10;99.90;;;8.11;100.00;97402.28;5070189;28;20406;-70
2022/12/26 08:36:08;;;;;;;6.70;4.37;;;9.10;99.90;;;8.13;100.00;97409.94;5069889;28;20399;-70
2022/12/26 08:38:35;;;;;;;6.95;4.25;;;9.10;99.90;;;8.14;100.00;97416.81;5070647;28;20396;-70
2022/12/26 08:41:03;;;;;;;9.10;4.30;;;9.10;99.90;;;8.14;100.00;97412.34;5070476;28;20453;-71
2022/12/26 08:43:29;;;;;;;6.22;4.20;;;9.20;99.90;;;8.17;100.00;97421.63;5051725;28;20415;-70
2022/12/26 08:46:00;;;;;;;5.95;3.95;;;9.20;99.90;;;8.18;100.00;97433.00;5070364;28;20468;-70
2022/12/26 08:48:27;;;;;;;6.30;4.03;;;9.20;99.90;;;8.21;100.00;97440.41;5070476;28;20398;-70
2022/12/26 08:50:58;;;;;;;7.15;4.43;;;9.20;99.90;;;8.19;100.00;97440.69;5070391;28;20412;-70
2022/12/26 08:53:25;;;;;;;8.07;4.55;;;9.20;99.90;;;8.16;100.00;97452.47;5069355;28;20404;-70
2022/12/26 08:55:52;;;;;;;8.95;4.50;;;9.10;99.90;;;8.18;100.00;97459.34;5070109;28;20392;-70
2022/12/26 08:58:19;;;;;;;5.72;4.30;;;9.20;99.90;;;8.16;100.00;97465.66;5070197;28;20406;-70
2022/12/26 09:00:45;;;;;;;6.88;4.32;;;9.20;99.90;;;8.15;100.00;97471.16;5070200;28;20512;-70
2022/12/26 09:03:11;;;;;;;8.00;4.68;;;9.10;99.90;;;8.16;100.00;97476.22;5069267;28;20419;-70
2022/12/26 09:05:37;;;;;;;7.85;4.90;;;9.20;99.90;;;8.17;100.00;97487.56;5070062;28;20420;-70
2022/12/26 09:08:04;;;;;;;7.85;4.60;;;9.10;99.90;;;8.17;100.00;97490.19;5070283;28;20427;-70
2022/12/26 09:10:29;;;;;;;7.65;4.43;;;9.20;99.90;;;8.19;100.00;97489.97;5070510;28;20407;-71
2022/12/26 09:12:55;;;;;;;9.73;5.07;;;9.20;99.90;;;8.22;100.00;97495.56;5070137;28;20904;-70
2022/12/26 09:15:23;;;;;;;6.80;4.63;;;9.20;99.90;;;8.26;100.00;97496.72;5053234;28;20519;-70
2022/12/26 09:17:49;;;;;;;8.18;4.70;;;9.30;99.90;;;8.23;100.00;97501.63;5070932;28;20404;-70
2022/12/26 09:20:15;;;;;;;8.98;5.30;;;9.20;99.90;;;8.28;100.00;97502.53;5069947;28;20407;-70
2022/12/26 09:22:50;;;;;;;9.97;5.37;;;9.30;99.90;;;8.24;100.00;97490.06;5055998;28;20407;-69
2022/12/26 09:25:16;;;;;;;10.00;5.53;;;9.20;99.90;;;8.28;100.00;97491.19;5080153;28;20403;-70
2022/12/26 09:27:42;;;;;;;10.93;5.25;;;9.20;99.90;;;8.27;100.00;97490.38;5079852;28;20438;-70
2022/12/26 09:30:08;;;;;;;13.88;5.97;;;9.30;99.90;;;8.26;100.00;97488.81;5055578;28;20408;-70
2022/12/26 09:32:36;;;;;;;9.35;5.40;;;9.20;99.90;;;8.32;100.00;97492.38;5069255;28;20407;-71
2022/12/26 09:35:02;;;;;;;8.70;5.45;;;9.30;99.90;;;8.32;100.00;97495.81;5069757;28;20404;-72
2022/12/26 09:37:28;;;;;;;7.03;5.20;;;9.30;99.90;;;8.37;100.00;97508.28;5045170;22;20789;-71
2022/12/26 09:39:54;;;;;;;9.85;5.90;;;9.30;99.90;;;8.35;100.00;97507.72;5029549;28;20415;-70
2022/12/26 09:42:31;;;;;;;10.07;5.87;;;9.30;99.90;;;8.30;100.00;97505.75;5029130;28;20490;-72
2022/12/26 09:45:07;;;;;;;10.73;6.30;;;9.30;99.90;;;8.29;100.00;97521.81;5029617;28;20733;-72
2022/12/26 09:47:44;;;;;;;9.60;5.70;;;9.30;99.90;;;8.39;100.00;97524.69;5030231;28;20425;-72
2022/12/26 09:50:15;;;;;;;12.48;6.10;;;9.30;99.90;;;8.48;100.00;97531.22;5033678;28;20410;-72
2022/12/26 09:52:49;;;;;;;11.60;5.95;;;9.40;99.90;;;8.46;100.00;97531.44;5032903;28;20406;-71
2022/12/26 09:55:36;;;;;;;13.30;6.03;;;9.40;99.90;;;8.34;100.00;97561.50;5033852;28;20853;-72
2022/12/26 09:58:14;;;;;;;17.70;7.00;;;9.40;99.90;;;8.37;100.00;97575.03;5033683;28;20871;-72
2022/12/26 10:00:49;;;;;;;21.90;7.30;;;9.30;99.90;;;8.20;100.00;97557.47;5033453;28;20450;-71
2022/12/26 10:03:16;;;;;;;23.80;7.80;;;9.20;99.90;;;8.19;100.00;97571.72;5032849;28;20702;-71
2022/12/26 10:05:59;;;;;;;21.13;7.47;;;9.20;99.90;;;8.19;100.00;97577.78;5033214;28;20419;-72
2022/12/26 10:08:39;;;;;;;21.30;7.15;;;9.10;99.90;;;8.13;100.00;97568.94;5033477;28;20399;-72
2022/12/26 10:11:13;;;;;;;22.58;7.15;;;9.10;99.90;;;8.13;100.00;97570.78;5033575;28;20765;-72
2022/12/26 10:13:48;;;;;;;20.42;7.43;;;9.10;99.90;;;8.15;100.00;97564.25;5033082;28;20437;-72
2022/12/26 10:16:19;;;;;;;14.13;6.57;;;9.20;99.90;;;8.20;100.00;97568.81;5033174;28;20468;-73
2022/12/26 10:18:56;;;;;;;15.18;6.55;;;9.20;99.90;;;8.23;100.00;97575.47;5033363;28;20457;-71
2022/12/26 10:21:37;;;;;;;21.40;7.80;;;9.20;99.90;;;8.18;100.00;97565.63;5032567;28;20939;-72
2022/12/26 10:24:14;;;;;;;18.60;7.75;;;9.20;99.90;;;8.15;100.00;97568.72;5032926;28;20418;-73
2022/12/26 10:26:48;;;;;;;20.33;7.63;;;9.20;99.90;;;8.13;100.00;97568.13;5033064;28;20415;-72
2022/12/26 10:29:20;;;;;;;15.38;7.38;;;9.20;99.90;;;8.12;100.00;97561.25;5033036;28;20399;-72
2022/12/26 10:31:53;;;;;;;19.88;7.65;;;9.10;99.90;;;8.10;100.00;97564.16;5032482;28;20411;-72
2022/12/26 10:34:27;;;;;;;16.80;7.80;;;9.20;99.90;;;8.09;100.00;97573.09;5048106;28;20415;-72
2022/12/26 10:36:59;;;;;;;21.33;7.82;;;9.10;99.90;;;8.15;100.00;97568.72;5032738;28;20410;-72
2022/12/26 10:39:33;;;;;;;24.57;7.63;;;9.10;99.90;;;8.15;100.00;97566.88;5032970;28;20457;-72
2022/12/26 10:42:03;;;;;;;17.90;7.50;;;9.10;99.90;;;8.18;100.00;97573.53;5031898;28;20402;-72
2022/12/26 10:44:29;;;;;;;22.95;7.28;;;9.20;99.90;;;8.19;100.00;97559.34;5032530;28;20496;-72
2022/12/26 10:47:21;;;;;;;20.30;7.50;;;9.20;99.90;;;8.18;100.00;97560.34;5032538;28;21046;-72
2022/12/26 10:49:49;;;;;;;13.57;6.33;;;9.20;99.90;;;8.18;100.00;97570.91;5032708;28;20441;-72
2022/12/26 10:52:19;;;;;;;24.50;6.53;;;9.20;99.90;;;8.23;100.00;97573.63;5031905;28;20403;-71
2022/12/26 10:54:52;;;;;;;9.23;4.55;;;9.20;99.90;;;8.35;100.00;97576.28;5032587;28;20545;-71
2022/12/26 10:57:28;;;;;;;12.00;5.05;;;9.30;99.90;;;8.37;100.00;97567.09;5047851;28;20411;-72
2022/12/26 10:59:56;;;;;;;10.70;4.43;;;9.30;99.90;;;8.33;100.00;97565.19;5032039;28;20401;-72
2022/12/26 11:02:25;;;;;;;9.20;4.40;;;9.40;99.90;;;8.31;100.00;97577.78;5047081;28;20923;-72
2022/12/26 11:05:08;;;;;;;13.70;5.05;;;9.30;99.90;;;8.28;100.00;97583.47;5032333;28;20453;-72
2022/12/26 11:07:38;;;;;;;8.32;4.00;;;9.30;99.90;;;8.30;100.00;97573.50;5032307;28;20427;-72
2022/12/26 11:10:16;;;;;;;15.23;4.28;;;9.30;99.90;;;8.28;100.00;97567.66;5032452;28;20395;-72
2022/12/26 11:12:49;;;;;;;6.75;3.38;;;9.30;99.90;;;8.34;100.00;97550.97;5031301;28;20411;-72
2022/12/26 11:15:28;;;;;;;6.57;3.20;;;9.30;99.90;;;8.26;100.00;97552.09;5032213;28;20395;-72
2022/12/26 11:18:08;;;;;;;7.97;3.50;;;9.30;99.90;;;8.27;100.00;97548.41;5032161;28;20395;-72
2022/12/26 11:20:36;;;;;;;8.73;3.10;;;9.30;99.90;;;8.33;100.00;97544.09;5032034;28;20403;-73
2022/12/26 11:23:24;;;;;;;8.00;2.80;;;9.30;99.90;;;8.35;100.00;97526.97;5031322;28;20486;-72
2022/12/26 11:25:53;;;;;;;9.63;3.40;;;9.40;99.90;;;8.36;100.00;97522.50;5047259;28;20888;-72
2022/12/26 11:28:29;;;;;;;8.02;3.00;;;9.40;99.90;;;8.41;100.00;97509.44;5047282;28;20777;-72
2022/12/26 11:30:56;;;;;;;6.87;3.43;;;9.40;99.90;;;8.45;100.00;97519.28;5031961;28;20420;-72
2022/12/26 11:33:29;;;;;;;5.53;2.70;;;9.40;99.90;;;8.42;100.00;97530.28;5031119;28;20453;-72
2022/12/26 11:36:09;;;;;;;4.57;3.03;;;9.40;99.90;;;8.45;100.00;97544.84;5046757;28;20401;-72
2022/12/26 11:38:46;;;;;;;5.97;2.85;;;9.40;99.90;;;8.43;100.00;97560.91;5031813;28;20983;-72
2022/12/26 11:41:39;;;;;;;6.97;2.63;;;9.40;99.90;;;8.54;100.00;97557.44;5031478;28;20418;-72
2022/12/26 11:44:25;;;;;;;3.92;2.42;;;9.50;99.90;;;8.37;100.00;97559.19;5031439;28;20395;-72
2022/12/26 11:46:56;;;;;;;3.90;2.30;;;9.40;99.90;;;8.35;100.00;97568.38;5031466;28;20442;-72
2022/12/26 11:49:28;;;;;;;3.63;2.17;;;9.40;99.90;;;8.37;100.00;97543.38;5031648;28;20821;-72
2022/12/26 11:51:58;;;;;;;3.45;2.10;;;9.40;99.90;;;8.33;100.00;97536.97;5046107;28;20916;-72
2022/12/26 11:54:29;;;;;;;5.00;2.38;;;9.40;99.90;;;8.31;100.00;97520.56;5031589;28;20399;-72
2022/12/26 11:57:19;;;;;;;2.87;2.00;;;9.30;99.90;;;8.33;100.00;97530.91;5031304;28;20427;-72
2022/12/26 11:59:47;;;;;;;3.65;2.03;;;9.30;99.90;;;8.46;100.00;97538.53;5031503;28;20392;-72
2022/12/26 12:02:23;;;;;;;2.50;1.70;;;9.40;99.90;;;8.35;100.00;97520.91;5030557;28;20399;-72
2022/12/26 12:04:52;;;;;;;3.90;1.83;;;9.30;99.90;;;8.37;100.00;97511.72;5030828;28;20533;-72
2022/12/26 12:07:55;;;;;;;2.75;1.80;;;9.30;99.90;;;8.51;100.00;97505.13;5031063;28;20429;-72
2022/12/26 12:10:58;;;;;;;3.10;1.70;;;9.50;99.90;;;8.58;100.00;97522.66;5030270;28;20410;-71
2022/12/26 12:13:46;;;;;;;2.13;1.80;;;9.50;99.90;;;8.52;100.00;97512.03;5024923;28;20785;-72
2022/12/26 12:16:39;;;;;;;3.60;1.80;;;9.40;99.90;;;8.52;100.00;97524.41;5031038;28;20452;-72
2022/12/26 12:19:28;;;;;;;3.25;1.73;;;9.50;99.90;;;8.66;100.00;97543.41;5031162;28;20410;-72
2022/12/26 12:22:20;;;;;;;3.70;1.77;;;9.60;99.90;;;8.78;100.00;97538.91;5030214;28;20441;-73
2022/12/26 12:25:15;;;;;;;2.88;1.83;;;9.70;99.90;;;8.74;100.00;97538.56;5030879;28;20410;-71
2022/12/26 12:27:50;;;;;;;4.55;1.85;;;9.70;99.90;;;8.83;100.00;97525.78;5030738;28;20941;-71
2022/12/26 12:30:20;;;;;;;2.00;1.50;;;9.80;99.90;;;8.92;100.00;97517.28;5030792;28;20407;-72
2022/12/26 12:33:21;;;;;;;2.05;1.58;;;9.90;99.90;;;8.84;100.00;97532.69;5030295;28;20414;-72
2022/12/26 12:36:02;;;;;;;2.97;1.60;;;9.80;99.90;;;8.98;100.00;97533.19;5030692;28;20888;-71
2022/12/26 12:38:32;;;;;;;1.40;1.30;;;9.80;99.90;;;9.07;100.00;97529.13;5030791;28;21003;-72
2022/12/26 12:41:20;;;;;;;2.70;1.60;;;9.90;99.90;;;8.99;100.00;97527.69;5030649;28;20911;-71
2022/12/26 12:43:54;;;;;;;2.50;1.60;;;9.90;99.90;;;9.00;100.00;97525.84;5030523;28;20502;-70
2022/12/26 12:46:30;;;;;;;2.95;1.50;;;9.90;99.90;;;8.98;100.00;97517.34;5030536;28;20815;-72